createdAt,value
2016-05-02T20:47:48.881Z,1016.59
2016-05-02T20:48:48.930Z,1016.62
2016-05-02T20:49:48.964Z,1016.58
2016-05-02T20:50:48.998Z,1016.58
2016-05-02T20:51:49.047Z,1016.57
2016-05-02T20:52:49.081Z,1016.59
2016-05-02T20:53:49.130Z,1016.56
2016-05-02T20:54:49.165Z,1016.57
2016-05-02T20:55:49.231Z,1016.55
2016-05-02T20:56:49.249Z,1016.56
2016-05-02T20:57:49.283Z,1016.54
2016-05-02T20:58:49.333Z,1016.52
2016-05-02T20:59:49.366Z,1016.58
2016-05-02T21:00:49.415Z,1016.59
2016-05-02T21:01:49.449Z,1016.53
2016-05-02T21:02:49.499Z,1016.52
2016-05-02T21:03:49.533Z,1016.54
2016-05-02T21:04:49.582Z,1016.53
2016-05-02T21:05:49.616Z,1016.49
2016-05-02T21:06:49.651Z,1016.48
2016-05-02T21:07:49.716Z,1016.48
2016-05-02T21:08:49.734Z,1016.49
2016-05-02T21:09:49.815Z,1016.51
2016-05-02T21:10:49.833Z,1016.53
2016-05-02T21:11:49.851Z,1016.51
2016-05-02T21:12:49.901Z,1016.5
2016-05-02T21:13:49.935Z,1016.48
2016-05-02T21:14:49.985Z,1016.47
2016-05-02T21:15:50.018Z,1016.44
2016-05-02T21:16:50.068Z,1016.5
2016-05-02T21:17:50.103Z,1016.5
2016-05-02T21:18:50.136Z,1016.53
2016-05-02T21:19:50.186Z,1016.54
2016-05-02T21:20:50.220Z,1016.54
2016-05-02T21:21:50.269Z,1016.54
2016-05-02T21:22:50.303Z,1016.56
2016-05-02T21:23:50.337Z,1016.52
2016-05-02T21:24:50.386Z,1016.56
2016-05-02T21:25:50.420Z,1016.57
2016-05-02T21:26:50.469Z,1016.57
2016-05-02T21:27:50.504Z,1016.57
2016-05-02T21:28:50.553Z,1016.61
2016-05-02T21:29:50.588Z,1016.66
2016-05-02T21:30:50.637Z,1016.63
2016-05-02T21:31:50.702Z,1016.6
2016-05-02T21:32:50.721Z,1016.61
2016-05-02T21:33:50.754Z,1016.63
2016-05-02T21:34:50.789Z,1016.68
2016-05-02T21:35:50.838Z,1016.7
2016-05-02T21:36:50.871Z,1016.65
2016-05-02T21:37:50.922Z,1016.7
2016-05-02T21:38:50.955Z,1016.66
2016-05-02T21:39:50.989Z,1016.65
2016-05-02T21:40:51.039Z,1016.71
2016-05-02T21:41:51.073Z,1016.65
2016-05-02T21:42:51.123Z,1016.7
2016-05-02T21:43:51.156Z,1016.66
2016-05-02T21:44:51.206Z,1016.63
2016-05-02T21:45:51.239Z,1016.68
2016-05-02T21:46:51.273Z,1016.65
2016-05-02T21:47:51.324Z,1016.72
2016-05-02T21:48:51.373Z,1016.68
2016-05-02T21:49:51.406Z,1016.64
2016-05-02T21:50:51.441Z,1016.69
2016-05-02T21:51:51.490Z,1016.68
2016-05-02T21:52:51.525Z,1016.63
2016-05-02T21:53:51.558Z,1016.67
2016-05-02T21:54:51.608Z,1016.69
2016-05-02T21:55:51.642Z,1016.65
2016-05-02T21:56:51.707Z,1016.64
2016-05-02T21:57:51.725Z,1016.63
2016-05-02T21:58:51.775Z,1016.65
2016-05-02T21:59:51.809Z,1016.62
2016-05-02T22:00:51.858Z,1016.68
2016-05-02T22:01:51.891Z,1016.64
2016-05-02T22:02:51.926Z,1016.65
2016-05-02T22:03:51.977Z,1016.62
2016-05-02T22:04:52.010Z,1016.61
2016-05-02T22:05:52.060Z,1016.6
2016-05-02T22:06:52.093Z,1016.6
2016-05-02T22:07:52.143Z,1016.56
2016-05-02T22:08:52.177Z,1016.61
2016-05-02T22:09:52.211Z,1016.65
2016-05-02T22:10:52.260Z,1016.64
2016-05-02T22:11:52.294Z,1016.63
2016-05-02T22:12:52.390Z,1016.64
2016-05-02T22:13:52.503Z,1016.61
2016-05-02T22:14:52.427Z,1016.58
2016-05-02T22:15:52.461Z,1016.59
2016-05-02T22:16:52.511Z,1016.57
2016-05-02T22:17:52.545Z,1016.61
2016-05-02T22:18:52.578Z,1016.55
2016-05-02T22:19:52.628Z,1016.64
2016-05-02T22:20:52.662Z,1016.65
2016-05-02T22:21:52.712Z,1016.65
2016-05-02T22:22:52.745Z,1016.57
2016-05-02T22:23:52.780Z,1016.56
2016-05-02T22:24:52.829Z,1016.58
2016-05-02T22:25:52.878Z,1016.6
2016-05-02T22:26:52.928Z,1016.64
2016-05-02T22:27:52.947Z,1016.65
2016-05-02T22:28:52.997Z,1016.64
2016-05-02T22:29:53.030Z,1016.58
2016-05-02T22:30:53.080Z,1016.56
2016-05-02T22:31:53.113Z,1016.56
2016-05-02T22:32:53.163Z,1016.5
2016-05-02T22:33:53.197Z,1016.54
2016-05-02T22:34:53.231Z,1016.55
2016-05-02T22:35:53.296Z,1016.5
2016-05-02T22:36:53.455Z,1016.5
2016-05-02T22:37:53.349Z,1016.47
2016-05-02T22:38:53.398Z,1016.5
2016-05-02T22:39:53.432Z,1016.44
2016-05-02T22:40:53.481Z,1016.44
2016-05-02T22:41:53.531Z,1016.42
2016-05-02T22:42:53.565Z,1016.42
2016-05-02T22:43:53.598Z,1016.41
2016-05-02T22:44:53.648Z,1016.42
2016-05-02T22:45:53.682Z,1016.44
2016-05-02T22:46:53.717Z,1016.44
2016-05-02T22:47:53.765Z,1016.41
2016-05-02T22:48:53.801Z,1016.44
2016-05-02T22:49:53.850Z,1016.44
2016-05-02T22:50:53.883Z,1016.42
2016-05-02T22:51:53.934Z,1016.38
2016-05-02T22:52:53.967Z,1016.43
2016-05-02T22:53:54.016Z,1016.39
2016-05-02T22:54:54.051Z,1016.4
2016-05-02T22:55:54.100Z,1016.36
2016-05-02T22:56:54.134Z,1016.39
2016-05-02T22:57:54.167Z,1016.37
2016-05-02T22:58:54.217Z,1016.36
2016-05-02T22:59:54.252Z,1016.36
2016-05-02T23:00:54.286Z,1016.32
2016-05-02T23:01:54.336Z,1016.32
2016-05-02T23:02:54.369Z,1016.32
2016-05-02T23:03:54.419Z,1016.28
2016-05-02T23:04:54.453Z,1016.29
2016-05-02T23:05:54.486Z,1016.27
2016-05-02T23:06:54.535Z,1016.26
2016-05-02T23:07:54.586Z,1016.28
2016-05-02T23:08:54.619Z,1016.29
2016-05-02T23:09:54.654Z,1016.27
2016-05-02T23:10:54.703Z,1016.25
2016-05-02T23:11:54.752Z,1016.2
2016-05-02T23:12:54.787Z,1016.2
2016-05-02T23:13:54.821Z,1016.2
2016-05-02T23:14:54.870Z,1016.18
2016-05-02T23:15:55.029Z,1016.2
2016-05-02T23:16:54.938Z,1016.18
2016-05-02T23:17:54.985Z,1016.18
2016-05-02T23:18:55.017Z,1016.16
2016-05-02T23:19:55.063Z,1016.15
2016-05-02T23:20:55.103Z,1016.15
2016-05-02T23:21:55.138Z,1016.15
2016-05-02T23:22:55.172Z,1016.14
2016-05-02T23:23:55.222Z,1016.13
2016-05-02T23:24:55.255Z,1016.09
2016-05-02T23:25:55.305Z,1016.08
2016-05-02T23:26:55.339Z,1016.07
2016-05-02T23:27:55.389Z,1016.08
2016-05-02T23:28:55.422Z,1016.05
2016-05-02T23:29:55.456Z,1016.08
2016-05-02T23:30:55.506Z,1016.06
2016-05-02T23:31:55.540Z,1016
2016-05-02T23:32:55.590Z,1015.97
2016-05-02T23:33:55.624Z,1016.01
2016-05-02T23:34:55.674Z,1015.95
2016-05-02T23:35:55.707Z,1015.92
2016-05-02T23:36:55.741Z,1015.97
2016-05-02T23:37:55.790Z,1015.95
2016-05-02T23:38:55.824Z,1015.97
2016-05-02T23:39:55.874Z,1015.91
2016-05-02T23:40:55.907Z,1015.89
2016-05-02T23:41:55.957Z,1015.86
2016-05-02T23:42:55.992Z,1015.89
2016-05-02T23:43:56.040Z,1015.9
2016-05-02T23:44:56.075Z,1015.85
2016-05-02T23:45:56.108Z,1015.85
2016-05-02T23:46:56.158Z,1015.82
2016-05-02T23:47:56.192Z,1015.8
2016-05-02T23:48:56.242Z,1015.76
2016-05-02T23:49:56.275Z,1015.78
2016-05-02T23:50:56.325Z,1015.77
2016-05-02T23:51:56.359Z,1015.73
2016-05-02T23:52:56.408Z,1015.68
2016-05-02T23:53:56.442Z,1015.7
2016-05-02T23:54:56.477Z,1015.71
2016-05-02T23:55:56.527Z,1015.7
2016-05-02T23:56:56.560Z,1015.67
2016-05-02T23:57:56.595Z,1015.68
2016-05-02T23:58:56.644Z,1015.67
2016-05-02T23:59:56.677Z,1015.64
